createdAt,value
2022-12-24T00:09:13.337Z,79.01
2022-12-24T00:14:16.379Z,78.38
2022-12-24T00:19:19.490Z,78.42
2022-12-24T00:24:23.727Z,78.20
2022-12-24T00:29:26.820Z,77.79
2022-12-24T00:34:29.874Z,77.58
2022-12-24T00:44:49.685Z,78.28
2022-12-24T00:49:52.753Z,78.26
2022-12-24T01:00:12.795Z,77.86
2022-12-24T01:05:15.899Z,78.09
2022-12-24T01:10:20.305Z,78.67
2022-12-24T01:15:23.378Z,78.38
2022-12-24T01:20:31.825Z,78.35
2022-12-24T01:25:34.924Z,78.08
2022-12-24T01:30:37.911Z,77.49
2022-12-24T01:35:42.488Z,76.96
2022-12-24T01:41:03.805Z,78.47
2022-12-24T01:46:33.255Z,78.05
2022-12-24T01:51:39.153Z,77.44
2022-12-24T01:56:49.327Z,78.14
2022-12-24T02:01:55.200Z,77.58
2022-12-24T02:07:00.894Z,77.21
2022-12-24T02:12:06.414Z,77.05
2022-12-24T02:17:12.027Z,78.44
2022-12-24T02:22:51.527Z,78.41
2022-12-24T02:28:28.910Z,77.85
2022-12-24T02:34:09.445Z,78.35
2022-12-24T02:39:28.039Z,78.28
2022-12-24T02:44:35.775Z,77.47
2022-12-24T02:49:39.067Z,77.80
2022-12-24T02:54:45.795Z,77.19
2022-12-24T03:00:06.343Z,77.87
2022-12-24T03:05:31.307Z,77.97
2022-12-24T03:10:57.397Z,77.96
2022-12-24T03:16:03.808Z,78.19
2022-12-24T03:21:12.687Z,77.61
2022-12-24T03:26:18.538Z,78.67
2022-12-24T03:31:21.882Z,78.27
2022-12-24T03:36:25.752Z,77.86
2022-12-24T03:41:34.305Z,78.14
2022-12-24T03:46:39.875Z,77.78
2022-12-24T03:51:42.940Z,77.56
2022-12-24T03:56:46.009Z,78.71
2022-12-24T04:01:49.389Z,78.14
2022-12-24T04:06:52.684Z,77.70
2022-12-24T04:11:59.177Z,77.62
2022-12-24T04:22:23.614Z,78.29
2022-12-24T04:38:06.305Z,77.83
2022-12-24T04:43:09.341Z,78.32
2022-12-24T04:48:12.416Z,78.27
2022-12-24T04:53:15.528Z,78.03
2022-12-24T04:58:18.671Z,77.81
2022-12-24T05:03:22.430Z,78.51
2022-12-24T05:08:25.500Z,78.04
2022-12-24T05:13:37.698Z,79.24
2022-12-24T05:18:43.968Z,78.90
2022-12-24T05:24:05.765Z,79.17
2022-12-24T05:29:10.252Z,78.80
2022-12-24T05:39:34.786Z,77.71
2022-12-24T05:44:38.180Z,78.57
2022-12-24T05:49:41.265Z,78.65
2022-12-24T05:54:44.350Z,78.29
2022-12-24T05:59:49.160Z,78.53
2022-12-24T06:04:52.281Z,78.58
2022-12-24T06:09:55.344Z,78.02
2022-12-24T06:14:58.380Z,78.10
2022-12-24T06:20:01.404Z,78.49
2022-12-24T06:25:04.958Z,78.97
2022-12-24T06:30:08.815Z,78.33
2022-12-24T06:35:12.625Z,78.23
2022-12-24T06:40:15.716Z,78.26
2022-12-24T06:45:18.933Z,78.82
2022-12-24T06:50:22.075Z,77.75
2022-12-24T06:55:25.242Z,78.75
2022-12-24T07:05:45.016Z,78.44
2022-12-24T07:10:54.120Z,78.90
2022-12-24T07:16:02.072Z,79.34
2022-12-24T07:21:05.912Z,78.91
2022-12-24T07:26:09.121Z,79.51
2022-12-24T07:31:12.350Z,78.53
2022-12-24T07:36:19.932Z,78.84
2022-12-24T07:41:23.532Z,78.07
2022-12-24T07:46:26.636Z,78.50
2022-12-24T07:51:29.746Z,78.14
2022-12-24T07:56:33.527Z,78.38
2022-12-24T08:01:36.755Z,78.17
2022-12-24T08:06:58.313Z,79.03
2022-12-24T08:12:06.208Z,78.95
2022-12-24T08:17:09.353Z,77.92
2022-12-24T08:22:12.464Z,78.95
2022-12-24T08:27:15.567Z,78.45
2022-12-24T08:32:19.107Z,78.80
2022-12-24T08:37:22.235Z,79.18
2022-12-24T08:42:25.325Z,79.28
2022-12-24T08:47:28.613Z,78.78
2022-12-24T08:52:31.653Z,78.23
2022-12-24T08:57:38.460Z,78.68
2022-12-24T09:02:41.640Z,78.21
2022-12-24T09:07:44.906Z,78.26
2022-12-24T09:12:48.248Z,78.36
2022-12-24T09:17:51.495Z,78.26
2022-12-24T09:22:54.590Z,78.07
2022-12-24T09:28:00.335Z,77.74
2022-12-24T09:33:03.488Z,78.40
2022-12-24T09:38:06.582Z,77.50
2022-12-24T09:48:45.672Z,77.17
2022-12-24T09:54:04.915Z,78.14
2022-12-24T09:59:12.048Z,77.27
2022-12-24T10:04:18.120Z,77.50
2022-12-24T10:09:33.075Z,78.18
2022-12-24T10:15:23.548Z,78.09
2022-12-24T10:20:32.414Z,78.15
2022-12-24T10:26:13.182Z,77.35
2022-12-24T10:31:24.345Z,77.46
2022-12-24T10:36:29.965Z,77.90
2022-12-24T10:41:36.000Z,78.77
2022-12-24T10:52:23.326Z,78.58
2022-12-24T10:57:27.343Z,77.71
2022-12-24T11:02:39.256Z,78.58
2022-12-24T11:07:42.477Z,77.09
2022-12-24T11:13:12.845Z,78.42
2022-12-24T11:18:16.399Z,77.96
2022-12-24T11:23:20.091Z,77.09
2022-12-24T11:28:35.640Z,77.84
2022-12-24T11:33:50.893Z,78.17
2022-12-24T11:38:56.384Z,77.66
2022-12-24T11:44:09.159Z,77.59
2022-12-24T11:49:13.540Z,77.60
2022-12-24T11:54:23.880Z,76.77
2022-12-24T11:59:45.062Z,76.81
2022-12-24T12:04:53.898Z,76.45
2022-12-24T12:10:20.444Z,76.77
2022-12-24T12:15:27.535Z,76.89
2022-12-24T12:20:40.504Z,76.35
2022-12-24T12:25:46.386Z,77.34
2022-12-24T12:31:02.473Z,77.05
2022-12-24T12:36:08.313Z,76.82
2022-12-24T12:41:14.133Z,77.35
2022-12-24T12:46:28.757Z,76.80
2022-12-24T12:51:53.363Z,77.47
2022-12-24T12:57:03.194Z,77.49
2022-12-24T13:02:24.346Z,77.98
2022-12-24T13:08:12.349Z,78.02
2022-12-24T13:13:21.428Z,78.13
2022-12-24T13:18:44.839Z,78.17
2022-12-24T13:23:49.109Z,76.91
2022-12-24T13:28:53.245Z,77.97
2022-12-24T13:34:01.818Z,77.57
2022-12-24T13:39:04.929Z,77.95
2022-12-24T13:44:09.504Z,78.67
2022-12-24T13:49:40.333Z,79.00
2022-12-24T13:54:51.568Z,78.90
2022-12-24T14:00:11.789Z,78.17
2022-12-24T14:05:31.280Z,79.31
2022-12-24T14:10:42.643Z,78.86
2022-12-24T14:15:51.808Z,78.95
2022-12-24T14:20:58.172Z,78.33
2022-12-24T14:26:03.923Z,78.33
2022-12-24T14:31:20.023Z,78.45
2022-12-24T14:36:24.817Z,78.88
2022-12-24T14:41:39.767Z,77.95
2022-12-24T14:46:48.764Z,78.01
2022-12-24T14:52:03.584Z,78.45
2022-12-24T14:57:12.563Z,78.49
2022-12-24T15:02:48.703Z,78.38
2022-12-24T15:08:04.091Z,77.65
2022-12-24T15:13:36.788Z,78.30
2022-12-24T15:18:48.250Z,78.07
2022-12-24T15:23:52.387Z,78.97
2022-12-24T15:34:35.282Z,78.80
2022-12-24T15:39:40.408Z,78.30
2022-12-24T15:44:48.169Z,78.33
2022-12-24T15:49:52.891Z,78.27
2022-12-24T15:54:58.480Z,78.23
2022-12-24T16:00:03.454Z,78.37
2022-12-24T16:05:26.654Z,78.45
2022-12-24T16:10:30.310Z,77.84
2022-12-24T16:15:33.507Z,77.40
2022-12-24T16:20:36.655Z,76.82
2022-12-24T16:25:39.729Z,77.34
2022-12-24T16:30:45.548Z,76.67
2022-12-24T16:35:48.727Z,76.52
2022-12-24T16:40:52.542Z,76.39
2022-12-24T16:46:07.071Z,75.85
2022-12-24T16:51:10.875Z,75.37
2022-12-24T16:56:14.006Z,74.75
2022-12-24T17:01:17.099Z,74.87
2022-12-24T17:06:20.257Z,74.30
2022-12-24T17:11:24.785Z,73.19
2022-12-24T17:16:28.320Z,74.16
2022-12-24T17:21:31.426Z,73.28
2022-12-24T17:26:34.777Z,73.92
2022-12-24T17:31:43.122Z,73.66
2022-12-24T17:36:46.368Z,73.37
2022-12-24T17:41:49.486Z,72.94
2022-12-24T17:46:53.127Z,72.60
2022-12-24T17:51:56.364Z,72.82
2022-12-24T17:57:02.313Z,72.03
2022-12-24T18:02:05.525Z,73.26
2022-12-24T18:07:08.685Z,72.27
2022-12-24T18:12:13.065Z,72.43
2022-12-24T18:17:16.169Z,72.91
2022-12-24T18:22:19.271Z,72.01
2022-12-24T18:27:22.470Z,71.16
2022-12-24T18:32:25.668Z,71.83
2022-12-24T18:37:28.766Z,72.02
2022-12-24T18:42:31.847Z,71.12
2022-12-24T18:47:35.206Z,71.05
2022-12-24T18:52:38.450Z,71.67
2022-12-24T18:57:41.562Z,70.59
2022-12-24T19:02:44.702Z,71.88
2022-12-24T19:07:47.972Z,70.77
2022-12-24T19:12:52.862Z,71.13
2022-12-24T19:17:56.281Z,70.40
2022-12-24T19:22:59.368Z,70.61
2022-12-24T19:28:08.898Z,70.19
2022-12-24T19:33:12.104Z,70.01
2022-12-24T19:38:15.163Z,70.65
2022-12-24T19:43:18.266Z,70.61
2022-12-24T19:48:21.357Z,70.57
2022-12-24T19:53:24.468Z,71.13
2022-12-24T20:03:57.742Z,69.94
2022-12-24T20:09:03.119Z,69.50
2022-12-24T20:14:07.297Z,69.95
2022-12-24T20:19:14.983Z,70.18
2022-12-24T20:24:18.081Z,69.61
2022-12-24T20:29:21.195Z,69.42
2022-12-24T20:34:24.285Z,69.43
2022-12-24T20:39:28.369Z,69.83
2022-12-24T20:44:31.401Z,70.06
2022-12-24T20:49:34.430Z,69.77
2022-12-24T20:54:37.493Z,69.37
2022-12-24T20:59:51.336Z,69.26
2022-12-24T21:10:26.746Z,69.46
2022-12-24T21:15:41.994Z,69.21
2022-12-24T21:20:45.056Z,68.05
2022-12-24T21:25:58.702Z,67.77
2022-12-24T21:31:01.878Z,68.61
2022-12-24T21:36:05.202Z,69.05
2022-12-24T21:41:11.743Z,68.73
2022-12-24T21:46:18.950Z,68.07
2022-12-24T21:51:23.859Z,68.47
2022-12-24T21:56:26.922Z,68.12
2022-12-24T22:01:30.130Z,67.96
2022-12-24T22:06:51.796Z,68.25
2022-12-24T22:11:55.180Z,67.82
2022-12-24T22:16:58.279Z,68.05
2022-12-24T22:22:01.344Z,67.38
2022-12-24T22:27:05.168Z,67.15
2022-12-24T22:32:08.213Z,68.08
2022-12-24T22:37:11.381Z,66.83
2022-12-24T22:42:14.795Z,67.63
2022-12-24T22:47:17.862Z,67.04
2022-12-24T22:52:21.004Z,66.69
2022-12-24T22:57:24.125Z,67.42
2022-12-24T23:02:28.615Z,66.77
2022-12-24T23:07:32.239Z,66.63
2022-12-24T23:12:53.560Z,67.02
2022-12-24T23:17:56.631Z,65.95
2022-12-24T23:22:59.841Z,67.08
2022-12-24T23:28:02.996Z,66.24
2022-12-24T23:33:06.070Z,66.67
2022-12-24T23:38:09.149Z,65.42
2022-12-24T23:43:12.498Z,66.21
2022-12-24T23:48:16.095Z,66.75
2022-12-24T23:53:20.253Z,66.90
2022-12-24T23:58:23.312Z,65.72
